Time;durP1;ratioP1;P1;durP2;ratioP2;P2;SDS_P1;SDS_P2;PMS_P1;PMS_P2;Temp;Humidity;BMP_temperature;BMP_pressure;BME280_temperature;BME280_humidity;BME280_pressure;Samples;Min_cycle;Max_cycle;Signal;HPM_P1;HPM_P2
2021/08/27 00:01:16;;;;;;;3.00;1.07;;;23.30;52.30;;;;;;5108452;27;20216;-69
2021/08/27 00:03:49;;;;;;;2.17;1.00;;;23.30;52.40;;;;;;5109787;28;20197;-69
2021/08/27 00:06:20;;;;;;;1.13;0.77;;;23.30;52.40;;;;;;5093997;27;20208;-70
2021/08/27 00:08:50;;;;;;;1.17;0.60;;;23.30;53.10;;;;;;5112585;28;20196;-70
2021/08/27 00:11:21;;;;;;;1.37;0.70;;;23.30;52.50;;;;;;5116027;27;20218;-70
2021/08/27 00:13:50;;;;;;;2.00;1.00;;;23.20;52.50;;;;;;5095264;28;20188;-70
2021/08/27 00:16:20;;;;;;;1.40;0.70;;;23.20;52.60;;;;;;5107947;27;20590;-69
2021/08/27 00:18:51;;;;;;;0.97;0.77;;;23.20;52.50;;;;;;5114464;27;20232;-71
2021/08/27 00:21:23;;;;;;;2.23;1.40;;;23.30;52.70;;;;;;5109587;27;20613;-70
2021/08/27 00:23:55;;;;;;;1.37;0.87;;;23.20;52.50;;;;;;5108314;28;20189;-70
2021/08/27 00:26:31;;;;;;;1.07;0.80;;;23.20;52.50;;;;;;5088002;28;20628;-70
2021/08/27 00:29:02;;;;;;;2.53;1.07;;;23.20;52.70;;;;;;5111354;27;20717;-70
2021/08/27 00:31:32;;;;;;;1.43;0.87;;;23.20;52.70;;;;;;5088127;28;20281;-70
2021/08/27 00:34:05;;;;;;;1.47;0.87;;;23.20;52.80;;;;;;5092215;28;20203;-70
2021/08/27 00:36:35;;;;;;;2.73;0.60;;;23.20;52.80;;;;;;5110106;28;20204;-70
2021/08/27 00:39:02;;;;;;;1.73;1.00;;;23.20;52.80;;;;;;5088441;28;20770;-69
2021/08/27 00:41:30;;;;;;;0.90;0.60;;;23.20;52.90;;;;;;5079757;28;20212;-70
2021/08/27 00:44:00;;;;;;;2.13;1.03;;;23.20;52.90;;;;;;5108973;28;20823;-70
2021/08/27 00:46:30;;;;;;;1.37;0.70;;;23.20;52.90;;;;;;5111775;28;20216;-69
2021/08/27 00:48:58;;;;;;;1.30;0.77;;;23.10;52.90;;;;;;5108523;28;20188;-70
2021/08/27 00:51:30;;;;;;;1.57;0.80;;;23.20;53.00;;;;;;5100190;28;20224;-70
2021/08/27 00:54:01;;;;;;;1.77;0.83;;;23.20;53.00;;;;;;5099953;28;20209;-69
2021/08/27 00:56:30;;;;;;;1.00;0.73;;;23.20;53.10;;;;;;5085773;28;20194;-70
2021/08/27 00:58:59;;;;;;;1.10;0.80;;;23.20;53.10;;;;;;5092440;28;20265;-69
2021/08/27 01:01:32;;;;;;;0.80;0.70;;;23.10;53.00;;;;;;5083645;28;20219;-70
2021/08/27 01:04:03;;;;;;;1.30;0.80;;;23.20;53.10;;;;;;5079667;28;20201;-69
2021/08/27 01:06:49;;;;;;;1.40;0.57;;;23.20;53.10;;;;;;5107071;28;20614;-69
2021/08/27 01:09:40;;;;;;;3.43;0.77;;;23.10;53.00;;;;;;5087751;28;20529;-70
2021/08/27 01:12:27;;;;;;;3.30;0.90;;;23.10;53.00;;;;;;5087698;28;20275;-70
2021/08/27 01:15:27;;;;;;;1.27;0.80;;;23.10;53.10;;;;;;5099348;28;20203;-70
2021/08/27 01:18:11;;;;;;;1.73;0.90;;;23.10;53.10;;;;;;5110104;28;20249;-70
2021/08/27 01:21:13;;;;;;;1.67;0.70;;;23.10;53.20;;;;;;5105266;28;20238;-70
2021/08/27 01:24:04;;;;;;;1.43;0.90;;;23.10;53.20;;;;;;5088729;28;20275;-70
2021/08/27 01:26:50;;;;;;;1.30;0.80;;;23.10;53.20;;;;;;5109497;28;20201;-69
2021/08/27 01:30:03;;;;;;;2.10;0.83;;;23.10;53.30;;;;;;5109259;28;20697;-69
2021/08/27 01:32:58;;;;;;;1.30;0.77;;;23.10;53.30;;;;;;5099194;28;20267;-70
2021/08/27 01:35:31;;;;;;;1.40;0.70;;;23.10;53.40;;;;;;5083136;28;20257;-69
2021/08/27 01:38:07;;;;;;;0.80;0.60;;;23.10;53.40;;;;;;5088635;28;20815;-70
2021/08/27 01:40:43;;;;;;;1.13;0.77;;;23.00;53.40;;;;;;5083973;28;20575;-69
2021/08/27 01:43:14;;;;;;;1.50;0.70;;;23.00;53.50;;;;;;5100771;28;20224;-70
2021/08/27 01:45:46;;;;;;;1.77;0.90;;;23.10;53.50;;;;;;5092361;28;20253;-70
2021/08/27 01:48:33;;;;;;;1.10;0.70;;;23.10;53.50;;;;;;5086969;28;20298;-70
2021/08/27 01:51:09;;;;;;;1.07;0.83;;;23.00;53.50;;;;;;5087022;28;20831;-69
2021/08/27 01:54:01;;;;;;;1.40;0.80;;;23.00;53.40;;;;;;5107539;28;20219;-69
2021/08/27 01:56:40;;;;;;;2.80;0.70;;;23.00;53.50;;;;;;5093309;28;20761;-69
2021/08/27 01:59:12;;;;;;;1.60;0.70;;;23.00;53.50;;;;;;5106093;28;20203;-69
2021/08/27 02:01:40;;;;;;;1.80;0.70;;;23.00;53.50;;;;;;5078215;28;20633;-69
2021/08/27 02:04:32;;;;;;;1.97;0.80;;;23.00;53.50;;;;;;5065399;28;20226;-69
2021/08/27 02:07:01;;;;;;;1.30;0.73;;;23.00;53.50;;;;;;5101827;28;20227;-69
2021/08/27 02:09:33;;;;;;;1.90;0.83;;;23.00;53.50;;;;;;5088507;28;20748;-69
2021/08/27 02:12:05;;;;;;;2.73;0.87;;;23.00;53.50;;;;;;5070755;28;20219;-69
2021/08/27 02:14:38;;;;;;;2.43;0.80;;;23.00;53.60;;;;;;5107773;28;20204;-69
2021/08/27 02:17:06;;;;;;;1.40;0.60;;;23.00;53.60;;;;;;5088945;28;20287;-69
2021/08/27 02:19:39;;;;;;;1.50;0.90;;;23.00;53.50;;;;;;5087516;28;20209;-69
2021/08/27 02:22:13;;;;;;;1.60;0.73;;;23.00;53.50;;;;;;5105978;28;20800;-69
2021/08/27 02:25:14;;;;;;;2.50;0.90;;;23.00;53.50;;;;;;5078788;28;20576;-69
2021/08/27 02:27:46;;;;;;;2.50;0.83;;;23.00;53.50;;;;;;5088608;28;20192;-69
2021/08/27 02:30:25;;;;;;;1.67;0.77;;;22.90;53.50;;;;;;5048931;28;20229;-69
2021/08/27 02:33:11;;;;;;;1.07;0.60;;;22.90;53.60;;;;;;5070539;28;20309;-69
2021/08/27 02:35:41;;;;;;;1.77;1.03;;;22.90;53.60;;;;;;5070537;28;20212;-69
2021/08/27 02:38:30;;;;;;;1.70;0.70;;;22.90;53.60;;;;;;5069952;28;20200;-70
2021/08/27 02:41:00;;;;;;;1.47;0.73;;;23.00;53.70;;;;;;5083237;28;20630;-70
2021/08/27 02:43:29;;;;;;;2.30;0.70;;;22.90;53.70;;;;;;5089620;28;20699;-69
2021/08/27 02:45:58;;;;;;;1.13;0.70;;;22.90;53.90;;;;;;5062815;28;20202;-70
2021/08/27 02:48:31;;;;;;;0.80;0.60;;;22.90;53.70;;;;;;5085725;28;20209;-69
2021/08/27 02:51:23;;;;;;;1.53;0.70;;;22.90;53.70;;;;;;5078950;28;20198;-70
2021/08/27 02:54:04;;;;;;;0.73;0.70;;;22.90;53.70;;;;;;5082768;28;20260;-70
2021/08/27 02:56:39;;;;;;;1.80;0.90;;;22.90;53.80;;;;;;5076898;28;20204;-69
2021/08/27 02:59:13;;;;;;;1.80;1.00;;;22.90;53.80;;;;;;5085988;28;20781;-70
2021/08/27 03:01:55;;;;;;;1.30;0.73;;;22.90;53.80;;;;;;5056396;28;20630;-70
2021/08/27 03:04:58;;;;;;;2.00;0.80;;;22.90;53.70;;;;;;5072550;28;20198;-70
2021/08/27 03:07:51;;;;;;;1.80;0.60;;;22.90;53.70;;;;;;5083824;28;20211;-70
2021/08/27 03:10:48;;;;;;;1.40;0.80;;;22.90;53.90;;;;;;5087974;28;20212;-70
2021/08/27 03:13:48;;;;;;;1.00;0.77;;;22.90;53.90;;;;;;5085340;28;20235;-70
2021/08/27 03:16:24;;;;;;;1.40;0.70;;;22.90;53.90;;;;;;5054770;28;20486;-70
2021/08/27 03:19:29;;;;;;;1.50;1.00;;;22.90;53.90;;;;;;5085910;28;20238;-70
2021/08/27 03:22:12;;;;;;;1.67;0.80;;;22.90;54.00;;;;;;5092222;28;20784;-71
2021/08/27 03:25:09;;;;;;;2.77;0.70;;;22.80;53.90;;;;;;5085053;28;20738;-71
2021/08/27 03:28:23;;;;;;;1.60;0.53;;;22.90;54.00;;;;;;5084684;28;20289;-71
2021/08/27 03:30:55;;;;;;;2.37;0.80;;;22.80;53.90;;;;;;5086546;28;20634;-71
2021/08/27 03:33:32;;;;;;;1.00;0.60;;;22.90;54.10;;;;;;5066432;28;20209;-71
2021/08/27 03:36:06;;;;;;;1.40;1.00;;;22.80;54.00;;;;;;5070490;28;20288;-71
2021/08/27 03:38:38;;;;;;;0.93;0.57;;;22.90;54.00;;;;;;5061858;28;20208;-70
2021/08/27 03:41:36;;;;;;;2.70;0.80;;;22.80;53.90;;;;;;5089241;28;20209;-70
2021/08/27 03:44:12;;;;;;;1.60;0.77;;;22.80;54.00;;;;;;5057721;28;20532;-71
2021/08/27 03:46:47;;;;;;;1.43;0.80;;;22.80;53.80;;;;;;5080681;28;20196;-71
2021/08/27 03:49:18;;;;;;;1.50;0.70;;;22.80;53.80;;;;;;5059987;28;20243;-71
2021/08/27 03:51:50;;;;;;;1.60;0.90;;;22.80;53.90;;;;;;5074059;28;20221;-71
2021/08/27 03:54:29;;;;;;;1.30;0.60;;;22.80;53.90;;;;;;5091041;28;20205;-70
2021/08/27 03:57:02;;;;;;;1.80;0.90;;;22.80;53.80;;;;;;5064707;28;20208;-71
2021/08/27 03:59:35;;;;;;;2.03;0.80;;;22.80;53.80;;;;;;5070201;28;20200;-71
2021/08/27 04:02:06;;;;;;;2.83;0.60;;;22.80;53.80;;;;;;5077149;28;20196;-71
2021/08/27 04:04:58;;;;;;;2.07;0.90;;;22.80;53.90;;;;;;5073144;28;20601;-71
2021/08/27 04:07:32;;;;;;;2.10;0.90;;;22.80;53.90;;;;;;5079021;28;20561;-71
2021/08/27 04:10:13;;;;;;;1.37;0.80;;;22.70;53.70;;;;;;5073545;28;20201;-70
2021/08/27 04:12:41;;;;;;;2.63;1.00;;;22.70;53.70;;;;;;5092912;28;20563;-70
2021/08/27 04:15:11;;;;;;;2.67;1.00;;;22.70;53.80;;;;;;5082682;28;20190;-71
2021/08/27 04:17:42;;;;;;;1.90;0.80;;;22.70;53.80;;;;;;5082037;28;20208;-71
2021/08/27 04:20:13;;;;;;;1.57;0.70;;;22.70;53.80;;;;;;5057977;28;20257;-71
2021/08/27 04:22:44;;;;;;;1.73;1.00;;;22.70;53.90;;;;;;5080782;28;20693;-72
2021/08/27 04:25:19;;;;;;;1.80;0.97;;;22.70;53.90;;;;;;5087001;28;20279;-71
2021/08/27 04:27:51;;;;;;;2.17;0.80;;;22.70;53.90;;;;;;5071431;28;20205;-71
2021/08/27 04:30:23;;;;;;;2.40;1.00;;;22.70;53.90;;;;;;5103736;28;20239;-71
2021/08/27 04:32:54;;;;;;;3.83;1.00;;;22.70;53.90;;;;;;5111639;27;20305;-70
2021/08/27 04:35:38;;;;;;;3.23;1.10;;;22.60;53.80;;;;;;5089784;27;20271;-71
2021/08/27 04:38:06;;;;;;;2.93;1.20;;;22.70;53.90;;;;;;5057552;28;20213;-71
2021/08/27 04:40:35;;;;;;;2.13;1.10;;;22.70;53.90;;;;;;5102962;28;21156;-72
2021/08/27 04:43:07;;;;;;;1.93;1.20;;;22.70;53.80;;;;;;5089046;28;20204;-71
2021/08/27 04:45:39;;;;;;;2.70;0.80;;;22.60;53.70;;;;;;5085514;28;20208;-70
2021/08/27 04:48:08;;;;;;;2.03;0.90;;;22.70;53.90;;;;;;5107618;28;20295;-70
2021/08/27 04:50:42;;;;;;;2.80;0.80;;;22.70;53.90;;;;;;5107785;28;20645;-70
2021/08/27 04:53:13;;;;;;;2.23;0.93;;;22.70;53.90;;;;;;5089059;28;20579;-71
2021/08/27 04:55:43;;;;;;;1.40;1.00;;;22.70;53.90;;;;;;5105798;28;20379;-71
2021/08/27 04:58:14;;;;;;;2.73;1.20;;;22.60;53.80;;;;;;5090607;28;20680;-71
2021/08/27 05:00:45;;;;;;;2.13;1.13;;;22.60;53.80;;;;;;5109194;28;20609;-70
2021/08/27 05:03:14;;;;;;;1.87;0.97;;;22.60;53.80;;;;;;5105861;28;20201;-71
2021/08/27 05:05:46;;;;;;;1.47;1.03;;;22.70;53.90;;;;;;5106655;28;20199;-71
2021/08/27 05:08:18;;;;;;;1.70;0.93;;;22.60;53.90;;;;;;5090180;28;20314;-71
2021/08/27 05:10:49;;;;;;;1.83;0.73;;;22.60;53.90;;;;;;5106105;28;20204;-71
2021/08/27 05:13:44;;;;;;;1.70;0.90;;;22.60;53.90;;;;;;5091697;28;20540;-72
2021/08/27 05:16:12;;;;;;;2.83;1.00;;;22.60;54.00;;;;;;5107081;27;20209;-71
2021/08/27 05:18:42;;;;;;;3.83;1.10;;;22.60;54.00;;;;;;5074502;28;20204;-71
2021/08/27 05:21:15;;;;;;;2.33;1.23;;;22.60;54.10;;;;;;5100292;28;20200;-70
2021/08/27 05:23:47;;;;;;;2.07;1.10;;;22.60;54.10;;;;;;5099621;28;20211;-71
2021/08/27 05:26:19;;;;;;;2.77;1.10;;;22.60;54.10;;;;;;5103333;28;20192;-71
2021/08/27 05:28:49;;;;;;;2.53;1.00;;;22.60;54.10;;;;;;5107246;28;20246;-71
2021/08/27 05:31:18;;;;;;;3.10;1.17;;;22.60;54.10;;;;;;5107123;27;20291;-71
2021/08/27 05:33:49;;;;;;;2.07;1.00;;;22.60;54.10;;;;;;5109306;28;20231;-71
2021/08/27 05:36:21;;;;;;;1.93;1.40;;;22.60;54.10;;;;;;5090577;28;20193;-71
2021/08/27 05:38:49;;;;;;;2.93;1.23;;;22.60;54.10;;;;;;5087036;28;20538;-71
2021/08/27 05:41:17;;;;;;;2.43;1.20;;;22.60;54.10;;;;;;5096972;28;20196;-71
2021/08/27 05:43:48;;;;;;;2.07;1.10;;;22.60;54.10;;;;;;5108253;28;20204;-71
2021/08/27 05:46:17;;;;;;;1.77;0.97;;;22.60;54.20;;;;;;5082128;28;20614;-71
2021/08/27 05:48:47;;;;;;;2.43;0.90;;;22.60;54.20;;;;;;5101892;28;20218;-71
2021/08/27 05:51:18;;;;;;;2.87;1.20;;;22.60;54.80;;;;;;5110086;28;20300;-71
2021/08/27 05:53:49;;;;;;;2.87;1.33;;;22.60;54.20;;;;;;5083155;28;20606;-71
2021/08/27 05:56:20;;;;;;;4.13;1.30;;;22.50;54.10;;;;;;5090522;28;20200;-71
2021/08/27 05:58:50;;;;;;;1.83;1.00;;;22.60;54.20;;;;;;5107453;28;20215;-71
2021/08/27 06:01:21;;;;;;;1.87;1.03;;;22.50;54.20;;;;;;5096668;28;20641;-71
2021/08/27 06:03:51;;;;;;;2.30;1.10;;;22.60;54.30;;;;;;5109548;27;20189;-70
2021/08/27 06:06:21;;;;;;;2.40;1.10;;;22.50;54.20;;;;;;5090186;28;20204;-71
2021/08/27 06:08:52;;;;;;;3.67;1.30;;;22.50;54.30;;;;;;5108487;28;20192;-71
2021/08/27 06:11:26;;;;;;;2.67;1.23;;;22.50;54.30;;;;;;5089038;28;20215;-71
2021/08/27 06:13:57;;;;;;;2.67;1.30;;;22.50;54.30;;;;;;5101593;28;20572;-71
2021/08/27 06:16:26;;;;;;;3.13;1.30;;;22.50;54.40;;;;;;5099622;28;20406;-71
2021/08/27 06:19:07;;;;;;;2.27;0.97;;;22.50;54.50;;;;;;5091250;28;20256;-71
2021/08/27 06:21:43;;;;;;;1.87;1.07;;;22.50;55.00;;;;;;5066562;28;20196;-71
2021/08/27 06:24:16;;;;;;;2.03;0.90;;;22.50;55.20;;;;;;5099895;28;20250;-70
2021/08/27 06:26:43;;;;;;;2.37;1.10;;;22.50;54.50;;;;;;5101239;27;20208;-71
2021/08/27 06:29:14;;;;;;;2.87;1.20;;;22.50;54.60;;;;;;5071779;28;20258;-71
2021/08/27 06:31:54;;;;;;;2.77;1.50;;;22.50;54.70;;;;;;5093373;27;20624;-71
2021/08/27 06:34:23;;;;;;;2.93;1.20;;;22.40;54.80;;;;;;5100986;27;20640;-71
2021/08/27 06:36:54;;;;;;;13.87;2.77;;;22.40;55.00;;;;;;5086360;28;20196;-70
2021/08/27 06:39:26;;;;;;;21.93;4.70;;;22.30;55.40;;;;;;5105356;27;20204;-71
2021/08/27 06:42:00;;;;;;;28.57;5.80;;;22.20;56.00;;;;;;5094044;27;20329;-71
2021/08/27 06:44:31;;;;;;;20.60;6.23;;;22.20;56.50;;;;;;5105605;27;20204;-72
2021/08/27 06:47:02;;;;;;;19.33;4.90;;;22.20;56.80;;;;;;5088923;28;20234;-72
2021/08/27 06:49:31;;;;;;;17.80;4.73;;;22.10;56.60;;;;;;5107663;28;20201;-72
2021/08/27 06:52:02;;;;;;;10.60;4.00;;;22.10;56.80;;;;;;5090171;28;20213;-71
2021/08/27 06:54:30;;;;;;;10.40;3.10;;;22.00;56.90;;;;;;5084473;28;20200;-71
2021/08/27 06:56:59;;;;;;;12.27;3.53;;;22.00;57.00;;;;;;5099218;28;20204;-72
2021/08/27 06:59:28;;;;;;;7.43;2.93;;;21.90;57.20;;;;;;5110804;28;20204;-70
2021/08/27 07:01:58;;;;;;;11.68;3.15;;;21.90;57.20;;;;;;5087519;28;20452;-69
2021/08/27 07:04:27;;;;;;;12.03;3.17;;;22.10;57.30;;;;;;5101903;28;20215;-71
2021/08/27 07:06:59;;;;;;;11.13;3.20;;;22.10;57.30;;;;;;5107679;28;20753;-71
2021/08/27 07:09:29;;;;;;;7.40;2.53;;;22.20;57.40;;;;;;5096721;28;20253;-72
2021/08/27 07:11:59;;;;;;;6.27;2.23;;;22.30;57.30;;;;;;5109552;28;20221;-72
2021/08/27 07:14:29;;;;;;;13.70;3.10;;;22.40;57.10;;;;;;5105863;28;20374;-72
2021/08/27 07:17:01;;;;;;;9.13;2.30;;;22.50;57.00;;;;;;5099908;28;20204;-72
2021/08/27 07:19:36;;;;;;;8.63;2.60;;;22.60;57.30;;;;;;5090223;28;20196;-71
2021/08/27 07:22:04;;;;;;;7.80;1.90;;;22.60;57.50;;;;;;5083115;28;20212;-71
2021/08/27 07:24:36;;;;;;;6.27;2.20;;;22.70;57.20;;;;;;5082930;28;20193;-73
2021/08/27 07:27:12;;;;;;;6.40;1.67;;;22.70;57.00;;;;;;5095674;28;20216;-71
2021/08/27 07:29:39;;;;;;;6.50;2.30;;;22.70;56.90;;;;;;5081511;28;20297;-73
2021/08/27 07:32:11;;;;;;;8.47;2.10;;;22.70;56.80;;;;;;5083530;28;20283;-72
2021/08/27 07:34:43;;;;;;;3.37;1.73;;;22.70;56.80;;;;;;5103535;28;20258;-72
2021/08/27 07:37:19;;;;;;;6.40;1.97;;;22.70;56.70;;;;;;5085686;28;20199;-71
2021/08/27 07:39:52;;;;;;;5.63;2.00;;;22.70;56.50;;;;;;5093554;28;20197;-70
2021/08/27 07:42:19;;;;;;;4.27;1.57;;;22.80;56.30;;;;;;5084790;28;20212;-69
2021/08/27 07:44:49;;;;;;;4.50;1.60;;;22.80;56.40;;;;;;5083075;28;20191;-72
2021/08/27 07:47:18;;;;;;;4.37;1.57;;;22.80;56.70;;;;;;5101417;28;20519;-73
2021/08/27 07:49:49;;;;;;;5.20;1.20;;;22.80;56.20;;;;;;5101064;28;20541;-75
2021/08/27 07:52:20;;;;;;;3.50;1.37;;;22.90;56.10;;;;;;5083922;28;20562;-75
2021/08/27 07:54:50;;;;;;;5.07;1.50;;;22.90;56.10;;;;;;5089019;28;20262;-74
2021/08/27 07:57:21;;;;;;;2.77;1.10;;;23.00;56.10;;;;;;5109639;28;20207;-74
2021/08/27 07:59:53;;;;;;;6.43;1.50;;;23.00;55.90;;;;;;5090729;28;20188;-70
2021/08/27 08:02:23;;;;;;;3.53;1.50;;;23.00;55.40;;;;;;5103218;28;20207;-70
2021/08/27 08:04:52;;;;;;;4.30;1.27;;;23.00;55.00;;;;;;5105325;28;20272;-70
2021/08/27 08:07:22;;;;;;;4.30;1.47;;;23.00;55.40;;;;;;5085199;28;20285;-69
2021/08/27 08:09:52;;;;;;;5.17;1.40;;;22.90;55.70;;;;;;5097581;28;20388;-70
2021/08/27 08:12:27;;;;;;;3.07;1.10;;;23.00;55.40;;;;;;5089773;28;20202;-69
2021/08/27 08:15:01;;;;;;;3.43;1.17;;;22.90;55.00;;;;;;5107968;28;20199;-69
2021/08/27 08:17:38;;;;;;;1.90;1.10;;;22.90;55.00;;;;;;5102112;28;20195;-69
2021/08/27 08:20:10;;;;;;;2.83;1.20;;;22.80;54.70;;;;;;5107508;28;20280;-69
2021/08/27 08:23:00;;;;;;;3.17;1.20;;;22.80;54.80;;;;;;5108691;28;20247;-69
2021/08/27 08:25:29;;;;;;;3.37;1.00;;;22.80;54.70;;;;;;5090656;28;20215;-70
2021/08/27 08:27:59;;;;;;;2.40;1.10;;;22.80;55.40;;;;;;5104563;28;20500;-70
2021/08/27 08:30:28;;;;;;;3.53;1.70;;;22.80;55.00;;;;;;5085683;28;20297;-69
2021/08/27 08:33:00;;;;;;;2.80;1.20;;;22.90;55.00;;;;;;5105626;28;20663;-70
2021/08/27 08:35:31;;;;;;;2.07;1.10;;;22.80;55.10;;;;;;5101544;27;20203;-71
2021/08/27 08:38:01;;;;;;;2.53;1.50;;;22.80;55.20;;;;;;5085626;28;20261;-68
2021/08/27 08:40:31;;;;;;;3.67;1.13;;;22.80;55.10;;;;;;5104058;27;20188;-69
2021/08/27 08:43:01;;;;;;;3.40;1.63;;;22.90;55.10;;;;;;5107545;28;20207;-69
2021/08/27 08:45:34;;;;;;;5.33;1.20;;;22.90;54.90;;;;;;5106204;28;20204;-69
2021/08/27 08:48:07;;;;;;;2.23;1.20;;;22.80;54.40;;;;;;5086859;27;20231;-70
2021/08/27 08:50:41;;;;;;;2.53;1.20;;;22.80;54.50;;;;;;5074474;28;20208;-70
2021/08/27 08:53:13;;;;;;;4.07;1.30;;;22.80;54.50;;;;;;5067233;28;20204;-70
2021/08/27 08:55:44;;;;;;;2.53;1.10;;;22.80;54.60;;;;;;5089399;28;20503;-70
2021/08/27 08:58:16;;;;;;;3.30;1.43;;;22.80;54.60;;;;;;5077284;28;20274;-70
2021/08/27 09:00:49;;;;;;;2.83;1.30;;;22.80;54.40;;;;;;5103061;28;20205;-70
2021/08/27 09:03:20;;;;;;;2.30;1.10;;;22.70;54.40;;;;;;5102582;28;20212;-70
2021/08/27 09:05:52;;;;;;;4.50;1.20;;;22.70;54.60;;;;;;5106746;28;20188;-70
2021/08/27 09:08:46;;;;;;;3.83;1.10;;;22.70;54.30;;;;;;5109753;28;20200;-70
2021/08/27 09:11:24;;;;;;;1.50;1.00;;;22.70;54.40;;;;;;5091615;28;20497;-70
2021/08/27 09:13:58;;;;;;;4.13;1.60;;;22.70;54.50;;;;;;5086403;28;20719;-70
2021/08/27 09:17:04;;;;;;;4.37;1.00;;;22.70;54.60;;;;;;5106110;28;20203;-70
2021/08/27 09:19:54;;;;;;;2.97;1.20;;;22.70;54.60;;;;;;5106345;28;20199;-70
2021/08/27 09:22:42;;;;;;;3.53;1.40;;;22.60;54.60;;;;;;5098734;28;20215;-70
2021/08/27 09:25:13;;;;;;;4.03;1.23;;;22.60;54.40;;;;;;5107086;28;20669;-70
2021/08/27 09:28:17;;;;;;;3.27;0.90;;;22.60;54.40;;;;;;5070567;28;20632;-70
2021/08/27 09:30:54;;;;;;;4.90;1.40;;;22.60;54.50;;;;;;5104653;28;20260;-70
2021/08/27 09:33:36;;;;;;;3.20;1.20;;;22.50;54.60;;;;;;5104883;28;20585;-70
2021/08/27 09:36:07;;;;;;;4.53;1.37;;;22.50;55.00;;;;;;5103281;28;20208;-70
2021/08/27 09:38:41;;;;;;;4.23;1.20;;;22.50;55.00;;;;;;5082158;28;20192;-70
2021/08/27 09:41:23;;;;;;;2.40;1.37;;;22.60;55.00;;;;;;5096771;27;20208;-70
2021/08/27 09:43:56;;;;;;;3.83;1.07;;;22.50;55.10;;;;;;5103339;28;20189;-70
2021/08/27 09:46:45;;;;;;;3.20;1.17;;;22.50;55.10;;;;;;5108175;28;20220;-70
2021/08/27 09:49:37;;;;;;;3.70;1.30;;;22.50;55.20;;;;;;5070867;28;20204;-70
2021/08/27 09:52:12;;;;;;;1.97;0.97;;;22.50;55.00;;;;;;5085935;28;20245;-70
2021/08/27 09:54:46;;;;;;;2.37;0.90;;;22.50;54.90;;;;;;5087343;27;20254;-70
2021/08/27 09:57:35;;;;;;;2.90;1.20;;;22.50;54.90;;;;;;5116863;27;20203;-71
2021/08/27 10:00:15;;;;;;;3.17;1.20;;;22.50;54.90;;;;;;5102311;28;20706;-70
2021/08/27 10:02:43;;;;;;;4.00;1.20;;;22.50;54.90;;;;;;5102309;28;20707;-70
2021/08/27 10:05:37;;;;;;;3.80;1.23;;;22.50;55.10;;;;;;5070785;27;20196;-70
2021/08/27 10:08:21;;;;;;;2.43;1.10;;;22.50;54.90;;;;;;5101185;28;20628;-70
2021/08/27 10:10:54;;;;;;;2.27;1.37;;;22.50;55.10;;;;;;5091190;28;20197;-70
2021/08/27 10:13:22;;;;;;;2.17;1.23;;;22.50;55.20;;;;;;5085835;28;20572;-70
2021/08/27 10:15:53;;;;;;;2.73;1.03;;;22.50;55.20;;;;;;5103203;28;20730;-70
2021/08/27 10:18:27;;;;;;;3.00;0.97;;;22.50;55.40;;;;;;5088230;28;20202;-70
2021/08/27 10:20:59;;;;;;;2.10;1.10;;;22.50;55.50;;;;;;5084720;28;20255;-70
2021/08/27 10:23:29;;;;;;;2.83;1.20;;;22.40;55.60;;;;;;5104257;27;20684;-70
2021/08/27 10:26:20;;;;;;;2.73;1.40;;;22.40;55.20;;;;;;5087767;28;20207;-69
2021/08/27 10:29:02;;;;;;;3.63;1.10;;;22.40;55.30;;;;;;5086364;28;20737;-70
2021/08/27 10:31:57;;;;;;;3.03;1.30;;;22.30;55.40;;;;;;5104340;28;20208;-69
2021/08/27 10:34:44;;;;;;;3.03;1.33;;;22.30;55.80;;;;;;5102721;28;20599;-70
2021/08/27 10:37:43;;;;;;;6.67;2.23;;;22.30;55.60;;;;;;5086194;28;20200;-70
2021/08/27 10:40:29;;;;;;;5.50;2.10;;;22.30;55.80;;;;;;5091473;28;20206;-70
2021/08/27 10:43:02;;;;;;;4.23;1.90;;;22.20;55.90;;;;;;5104038;28;20208;-70
2021/08/27 10:45:47;;;;;;;5.33;2.03;;;22.20;56.30;;;;;;5064209;28;20200;-70
2021/08/27 10:48:25;;;;;;;4.57;2.03;;;22.20;56.50;;;;;;5102327;28;20517;-70
2021/08/27 10:50:58;;;;;;;2.47;1.40;;;22.20;56.50;;;;;;5065727;28;20814;-70
2021/08/27 10:53:37;;;;;;;3.20;1.30;;;22.30;56.20;;;;;;5084756;28;20215;-70
2021/08/27 11:22:55;;;;;;;3.13;1.40;;;22.30;55.20;;;;;;5091353;28;20184;-72
2021/08/27 11:25:34;;;;;;;2.60;1.60;;;22.30;56.00;;;;;;5085492;28;20267;-72
2021/08/27 11:28:27;;;;;;;2.47;1.30;;;22.40;55.10;;;;;;5071968;28;20216;-72
2021/08/27 11:31:10;;;;;;;2.60;1.57;;;22.40;55.40;;;;;;5103463;27;20228;-72
2021/08/27 11:33:52;;;;;;;4.03;1.57;;;22.40;56.50;;;;;;5108942;28;20216;-72
2021/08/27 11:36:23;;;;;;;2.73;1.40;;;22.40;56.70;;;;;;5100990;28;20228;-69
2021/08/27 11:38:59;;;;;;;4.87;1.70;;;22.40;57.30;;;;;;5092887;28;20196;-70
2021/08/27 11:41:27;;;;;;;5.97;1.97;;;22.40;58.30;;;;;;5093149;28;20200;-67
2021/08/27 11:44:15;;;;;;;5.63;1.73;;;22.30;59.20;;;;;;5102976;28;20200;-70
2021/08/27 11:46:47;;;;;;;3.73;1.63;;;22.20;59.60;;;;;;5088374;28;20208;-69
2021/08/27 11:49:27;;;;;;;5.87;1.77;;;22.40;60.00;;;;;;5079904;28;20188;-69
2021/08/27 11:52:13;;;;;;;5.57;1.60;;;22.40;59.60;;;;;;5090114;28;20204;-69
2021/08/27 11:54:45;;;;;;;3.47;1.73;;;22.50;59.70;;;;;;5085256;28;20592;-69
2021/08/27 11:57:20;;;;;;;5.70;1.53;;;22.50;59.60;;;;;;5087024;28;20566;-70
2021/08/27 12:00:02;;;;;;;5.40;1.40;;;22.60;59.60;;;;;;5083650;28;20207;-70
2021/08/27 12:02:39;;;;;;;4.63;2.00;;;22.60;59.70;;;;;;5108592;28;20527;-70
2021/08/27 12:05:12;;;;;;;4.67;1.80;;;22.60;59.60;;;;;;5072319;28;20196;-70
2021/08/27 12:07:56;;;;;;;4.13;1.63;;;22.60;59.60;;;;;;5105535;28;20196;-71
2021/08/27 12:10:44;;;;;;;6.03;1.20;;;22.50;60.20;;;;;;5109522;28;20278;-69
2021/08/27 12:13:15;;;;;;;7.07;1.63;;;22.40;60.50;;;;;;5107229;28;20197;-70
2021/08/27 12:15:45;;;;;;;6.90;1.77;;;22.40;61.50;;;;;;5098551;28;20224;-69
2021/08/27 12:18:17;;;;;;;9.33;1.80;;;22.40;62.10;;;;;;5101555;28;20695;-68
2021/08/27 12:20:50;;;;;;;3.53;1.20;;;22.40;62.10;;;;;;5084104;28;20197;-69
2021/08/27 12:23:23;;;;;;;4.27;1.20;;;22.50;62.40;;;;;;5088881;28;20215;-68
2021/08/27 12:26:13;;;;;;;3.07;1.63;;;22.50;61.80;;;;;;5087728;28;20870;-68
2021/08/27 12:28:44;;;;;;;3.40;1.50;;;22.60;61.80;;;;;;5100712;28;20193;-66
2021/08/27 12:31:13;;;;;;;3.43;1.77;;;22.70;61.50;;;;;;5106832;28;20228;-68
2021/08/27 12:34:01;;;;;;;5.70;1.80;;;22.80;62.50;;;;;;5084648;28;20214;-70
2021/08/27 12:36:45;;;;;;;4.13;1.30;;;22.70;62.90;;;;;;5097869;27;20217;-71
2021/08/27 12:39:20;;;;;;;4.63;1.67;;;22.80;62.80;;;;;;5095655;28;20597;-71
2021/08/27 12:41:49;;;;;;;3.67;1.30;;;22.80;61.80;;;;;;5089887;28;20736;-71
2021/08/27 12:44:19;;;;;;;4.33;1.50;;;22.90;61.40;;;;;;5107829;28;20193;-71
2021/08/27 12:46:56;;;;;;;5.80;1.67;;;22.90;61.30;;;;;;5107168;28;20206;-70
2021/08/27 12:49:27;;;;;;;3.73;1.60;;;22.90;61.20;;;;;;5103306;28;20215;-68
2021/08/27 12:51:58;;;;;;;3.10;1.33;;;22.90;61.20;;;;;;5107630;28;20626;-69
2021/08/27 12:54:40;;;;;;;3.70;1.67;;;23.00;61.20;;;;;;5103034;28;20644;-72
2021/08/27 12:57:11;;;;;;;3.70;1.47;;;23.00;61.30;;;;;;5108185;28;20188;-74
2021/08/27 12:59:38;;;;;;;5.13;1.60;;;23.10;60.50;;;;;;5098250;28;20641;-71
2021/08/27 13:02:16;;;;;;;3.87;1.30;;;23.20;61.40;;;;;;5084303;28;20534;-71
2021/08/27 13:04:45;;;;;;;3.23;1.30;;;23.20;61.70;;;;;;5098222;28;20212;-69
2021/08/27 13:07:31;;;;;;;2.90;1.33;;;23.20;60.70;;;;;;5101392;28;20275;-68
2021/08/27 13:10:14;;;;;;;2.87;1.40;;;23.30;60.20;;;;;;5103890;28;20499;-68
2021/08/27 13:12:44;;;;;;;5.20;1.30;;;23.30;60.90;;;;;;5107007;28;20231;-68
2021/08/27 13:15:26;;;;;;;5.57;1.53;;;23.30;60.20;;;;;;5101477;28;20224;-70
2021/08/27 13:18:13;;;;;;;5.73;1.83;;;23.40;60.60;;;;;;5102383;28;20192;-70
2021/08/27 13:20:40;;;;;;;5.03;1.80;;;23.30;58.90;;;;;;5103040;28;20234;-70
2021/08/27 13:23:26;;;;;;;4.37;1.63;;;23.30;58.80;;;;;;5101286;28;20191;-73
2021/08/27 13:25:56;;;;;;;9.07;1.83;;;23.30;58.90;;;;;;5086957;28;20188;-74
2021/08/27 13:28:25;;;;;;;3.87;1.43;;;23.30;58.80;;;;;;5109522;28;20683;-70
2021/08/27 13:30:52;;;;;;;5.53;1.70;;;23.40;58.80;;;;;;5098810;28;20228;-71
2021/08/27 13:33:19;;;;;;;4.10;1.63;;;23.40;58.70;;;;;;5081235;28;20620;-71
2021/08/27 13:35:46;;;;;;;5.87;1.60;;;23.40;58.00;;;;;;5106673;28;20312;-74
2021/08/27 13:38:12;;;;;;;4.40;1.80;;;23.40;58.10;;;;;;5103431;28;20212;-74
2021/08/27 13:40:40;;;;;;;4.80;1.50;;;23.40;57.70;;;;;;5106779;28;20200;-72
2021/08/27 13:43:06;;;;;;;6.40;1.80;;;23.40;57.30;;;;;;5110002;28;20203;-72
2021/08/27 13:45:36;;;;;;;5.27;1.63;;;23.50;57.40;;;;;;5083924;28;20304;-73
2021/08/27 13:48:04;;;;;;;7.07;1.90;;;23.40;57.70;;;;;;5097130;28;20284;-73
2021/08/27 13:50:31;;;;;;;4.97;1.90;;;23.50;58.10;;;;;;5109174;28;20201;-72
2021/08/27 13:52:58;;;;;;;4.47;1.73;;;23.50;58.80;;;;;;5103421;28;20204;-70
2021/08/27 13:55:25;;;;;;;10.33;2.00;;;23.60;58.30;;;;;;5083964;28;20687;-69